sensor_id;sensor_type;location;lat;lon;timestamp;temperature;humidity
18823;DHT22;9540;51.550;7.980;2023-06-19T00:01:30;21.10;99.90
18823;DHT22;9540;51.550;7.980;2023-06-19T00:03:57;21.20;99.90
18823;DHT22;9540;51.550;7.980;2023-06-19T00:06:24;21.10;99.90
18823;DHT22;9540;51.550;7.980;2023-06-19T00:08:51;21.00;99.90
18823;DHT22;9540;51.550;7.980;2023-06-19T00:11:18;21.00;99.90
18823;DHT22;9540;51.550;7.980;2023-06-19T00:13:45;20.90;99.90
18823;DHT22;9540;51.550;7.980;2023-06-19T00:16:12;20.80;99.90
18823;DHT22;9540;51.550;7.980;2023-06-19T00:18:41;20.80;99.90
18823;DHT22;9540;51.550;7.980;2023-06-19T00:21:08;20.70;99.90
18823;DHT22;9540;51.550;7.980;2023-06-19T00:23:35;20.70;99.90
18823;DHT22;9540;51.550;7.980;2023-06-19T00:26:03;20.60;99.90
18823;DHT22;9540;51.550;7.980;2023-06-19T00:28:36;20.50;99.90
18823;DHT22;9540;51.550;7.980;2023-06-19T00:31:04;20.50;99.90
18823;DHT22;9540;51.550;7.980;2023-06-19T00:33:32;20.40;99.90
18823;DHT22;9540;51.550;7.980;2023-06-19T00:36:01;20.40;99.90
18823;DHT22;9540;51.550;7.980;2023-06-19T00:38:28;20.40;99.90
18823;DHT22;9540;51.550;7.980;2023-06-19T00:40:55;20.50;99.90
18823;DHT22;9540;51.550;7.980;2023-06-19T00:43:22;20.40;99.90
18823;DHT22;9540;51.550;7.980;2023-06-19T00:45:50;20.40;99.90
18823;DHT22;9540;51.550;7.980;2023-06-19T00:48:17;20.30;99.90
18823;DHT22;9540;51.550;7.980;2023-06-19T00:50:44;20.30;99.90
18823;DHT22;9540;51.550;7.980;2023-06-19T00:53:13;20.20;99.90
18823;DHT22;9540;51.550;7.980;2023-06-19T00:55:41;20.30;99.90
18823;DHT22;9540;51.550;7.980;2023-06-19T00:58:09;20.30;99.90
18823;DHT22;9540;51.550;7.980;2023-06-19T01:00:37;20.40;99.90
18823;DHT22;9540;51.550;7.980;2023-06-19T01:03:05;20.40;99.90
18823;DHT22;9540;51.550;7.980;2023-06-19T01:05:32;20.40;99.90
18823;DHT22;9540;51.550;7.980;2023-06-19T01:08:04;20.40;99.90
18823;DHT22;9540;51.550;7.980;2023-06-19T01:10:38;20.40;99.90
18823;DHT22;9540;51.550;7.980;2023-06-19T01:13:10;20.40;99.90
18823;DHT22;9540;51.550;7.980;2023-06-19T01:15:39;20.30;99.90
18823;DHT22;9540;51.550;7.980;2023-06-19T01:18:07;20.30;99.90
18823;DHT22;9540;51.550;7.980;2023-06-19T01:20:37;20.30;99.90
18823;DHT22;9540;51.550;7.980;2023-06-19T01:23:10;20.20;99.90
18823;DHT22;9540;51.550;7.980;2023-06-19T01:25:38;20.00;99.90
18823;DHT22;9540;51.550;7.980;2023-06-19T01:28:13;19.90;99.90
18823;DHT22;9540;51.550;7.980;2023-06-19T01:30:42;19.80;99.90
18823;DHT22;9540;51.550;7.980;2023-06-19T01:33:12;19.70;99.90
18823;DHT22;9540;51.550;7.980;2023-06-19T01:35:43;19.70;99.90
18823;DHT22;9540;51.550;7.980;2023-06-19T01:38:12;19.60;99.90
18823;DHT22;9540;51.550;7.980;2023-06-19T01:40:40;19.50;99.90
18823;DHT22;9540;51.550;7.980;2023-06-19T01:43:08;19.40;99.90
18823;DHT22;9540;51.550;7.980;2023-06-19T01:45:35;19.40;99.90
18823;DHT22;9540;51.550;7.980;2023-06-19T01:48:03;19.30;99.90
18823;DHT22;9540;51.550;7.980;2023-06-19T01:50:30;19.30;99.90
18823;DHT22;9540;51.550;7.980;2023-06-19T01:52:57;19.20;99.90
18823;DHT22;9540;51.550;7.980;2023-06-19T01:55:26;19.20;99.90
18823;DHT22;9540;51.550;7.980;2023-06-19T01:57:53;19.10;99.90
18823;DHT22;9540;51.550;7.980;2023-06-19T02:00:23;19.10;99.90
18823;DHT22;9540;51.550;7.980;2023-06-19T02:02:50;19.10;99.90
18823;DHT22;9540;51.550;7.980;2023-06-19T02:05:18;19.00;99.90
18823;DHT22;9540;51.550;7.980;2023-06-19T02:07:45;19.00;99.90
18823;DHT22;9540;51.550;7.980;2023-06-19T02:10:12;19.00;99.90
18823;DHT22;9540;51.550;7.980;2023-06-19T02:12:40;19.00;99.90
18823;DHT22;9540;51.550;7.980;2023-06-19T02:15:09;19.00;99.90
18823;DHT22;9540;51.550;7.980;2023-06-19T02:17:36;19.00;99.90
18823;DHT22;9540;51.550;7.980;2023-06-19T02:20:04;19.00;99.90
18823;DHT22;9540;51.550;7.980;2023-06-19T02:22:37;19.10;99.90
18823;DHT22;9540;51.550;7.980;2023-06-19T02:25:04;19.10;99.90
18823;DHT22;9540;51.550;7.980;2023-06-19T02:27:32;19.10;99.90
18823;DHT22;9540;51.550;7.980;2023-06-19T02:30:00;19.10;99.90
18823;DHT22;9540;51.550;7.980;2023-06-19T02:32:28;19.10;99.90
18823;DHT22;9540;51.550;7.980;2023-06-19T02:34:56;19.10;99.90
18823;DHT22;9540;51.550;7.980;2023-06-19T02:37:23;19.10;99.90
18823;DHT22;9540;51.550;7.980;2023-06-19T02:39:50;19.10;99.90
18823;DHT22;9540;51.550;7.980;2023-06-19T02:42:17;19.10;99.90
18823;DHT22;9540;51.550;7.980;2023-06-19T02:44:44;19.10;99.90
18823;DHT22;9540;51.550;7.980;2023-06-19T02:47:13;19.00;99.90
18823;DHT22;9540;51.550;7.980;2023-06-19T02:49:40;19.00;99.90
18823;DHT22;9540;51.550;7.980;2023-06-19T02:52:09;19.00;99.90
18823;DHT22;9540;51.550;7.980;2023-06-19T02:54:36;19.00;99.90
18823;DHT22;9540;51.550;7.980;2023-06-19T02:57:04;19.00;99.90
18823;DHT22;9540;51.550;7.980;2023-06-19T02:59:31;19.00;99.90
18823;DHT22;9540;51.550;7.980;2023-06-19T03:01:59;19.00;99.90
18823;DHT22;9540;51.550;7.980;2023-06-19T03:04:27;19.00;99.90
18823;DHT22;9540;51.550;7.980;2023-06-19T03:06:55;19.00;99.90
18823;DHT22;9540;51.550;7.980;2023-06-19T03:09:22;19.00;99.90
18823;DHT22;9540;51.550;7.980;2023-06-19T03:11:49;18.90;99.90
18823;DHT22;9540;51.550;7.980;2023-06-19T03:14:16;18.90;99.90
18823;DHT22;9540;51.550;7.980;2023-06-19T03:16:44;18.90;99.90
18823;DHT22;9540;51.550;7.980;2023-06-19T03:19:11;18.90;99.90
18823;DHT22;9540;51.550;7.980;2023-06-19T03:21:40;18.90;99.90
18823;DHT22;9540;51.550;7.980;2023-06-19T03:24:07;19.10;99.90
18823;DHT22;9540;51.550;7.980;2023-06-19T03:26:35;19.50;99.90
18823;DHT22;9540;51.550;7.980;2023-06-19T03:29:02;19.90;99.90
18823;DHT22;9540;51.550;7.980;2023-06-19T03:31:29;20.30;99.90
18823;DHT22;9540;51.550;7.980;2023-06-19T03:33:57;20.60;99.90
18823;DHT22;9540;51.550;7.980;2023-06-19T03:36:24;20.80;99.90
18823;DHT22;9540;51.550;7.980;2023-06-19T03:38:53;21.00;99.90
18823;DHT22;9540;51.550;7.980;2023-06-19T03:41:21;21.10;99.90
18823;DHT22;9540;51.550;7.980;2023-06-19T03:43:48;21.10;99.90
18823;DHT22;9540;51.550;7.980;2023-06-19T03:46:15;21.10;99.90
18823;DHT22;9540;51.550;7.980;2023-06-19T03:48:42;21.10;99.90
18823;DHT22;9540;51.550;7.980;2023-06-19T03:51:09;21.10;99.90
18823;DHT22;9540;51.550;7.980;2023-06-19T03:53:37;21.00;99.90
18823;DHT22;9540;51.550;7.980;2023-06-19T03:56:05;21.00;99.90
18823;DHT22;9540;51.550;7.980;2023-06-19T03:58:32;20.90;99.90
18823;DHT22;9540;51.550;7.980;2023-06-19T04:01:00;20.80;99.90
18823;DHT22;9540;51.550;7.980;2023-06-19T04:03:27;20.80;99.90
18823;DHT22;9540;51.550;7.980;2023-06-19T04:05:54;20.80;99.90
18823;DHT22;9540;51.550;7.980;2023-06-19T04:08:22;20.70;99.90
18823;DHT22;9540;51.550;7.980;2023-06-19T04:10:50;20.70;99.90
18823;DHT22;9540;51.550;7.980;2023-06-19T04:13:19;20.70;99.90
18823;DHT22;9540;51.550;7.980;2023-06-19T04:15:46;20.80;99.90
18823;DHT22;9540;51.550;7.980;2023-06-19T04:18:14;20.70;99.90
18823;DHT22;9540;51.550;7.980;2023-06-19T04:20:41;20.80;99.90
18823;DHT22;9540;51.550;7.980;2023-06-19T04:23:08;20.90;99.90
18823;DHT22;9540;51.550;7.980;2023-06-19T04:25:35;21.00;99.90
18823;DHT22;9540;51.550;7.980;2023-06-19T04:28:02;21.10;99.90
18823;DHT22;9540;51.550;7.980;2023-06-19T04:30:31;21.20;99.90
18823;DHT22;9540;51.550;7.980;2023-06-19T04:32:58;21.30;99.90
18823;DHT22;9540;51.550;7.980;2023-06-19T04:35:26;21.40;99.90
18823;DHT22;9540;51.550;7.980;2023-06-19T04:37:53;21.50;99.90
18823;DHT22;9540;51.550;7.980;2023-06-19T04:40:20;21.60;99.90
18823;DHT22;9540;51.550;7.980;2023-06-19T04:42:47;21.60;99.90
18823;DHT22;9540;51.550;7.980;2023-06-19T04:45:14;21.60;99.90
18823;DHT22;9540;51.550;7.980;2023-06-19T04:47:43;21.60;99.90
18823;DHT22;9540;51.550;7.980;2023-06-19T04:50:10;21.60;99.90
18823;DHT22;9540;51.550;7.980;2023-06-19T04:52:37;21.60;99.90
18823;DHT22;9540;51.550;7.980;2023-06-19T04:55:07;21.70;99.90
18823;DHT22;9540;51.550;7.980;2023-06-19T04:57:35;21.70;99.90
18823;DHT22;9540;51.550;7.980;2023-06-19T05:00:03;21.70;99.90
18823;DHT22;9540;51.550;7.980;2023-06-19T05:02:32;21.70;99.90
18823;DHT22;9540;51.550;7.980;2023-06-19T05:05:00;21.60;99.90
18823;DHT22;9540;51.550;7.980;2023-06-19T05:07:29;21.60;99.90
18823;DHT22;9540;51.550;7.980;2023-06-19T05:09:56;21.60;99.90
18823;DHT22;9540;51.550;7.980;2023-06-19T05:12:25;21.60;99.90
18823;DHT22;9540;51.550;7.980;2023-06-19T05:14:54;21.70;99.90
18823;DHT22;9540;51.550;7.980;2023-06-19T05:17:27;21.70;99.90
18823;DHT22;9540;51.550;7.980;2023-06-19T05:19:54;21.70;99.90
18823;DHT22;9540;51.550;7.980;2023-06-19T05:22:22;21.60;99.90
18823;DHT22;9540;51.550;7.980;2023-06-19T05:24:50;21.50;99.90
18823;DHT22;9540;51.550;7.980;2023-06-19T05:27:17;21.50;99.90
18823;DHT22;9540;51.550;7.980;2023-06-19T05:29:44;21.40;99.90
18823;DHT22;9540;51.550;7.980;2023-06-19T05:32:11;21.30;99.90
18823;DHT22;9540;51.550;7.980;2023-06-19T05:34:38;21.20;99.90
18823;DHT22;9540;51.550;7.980;2023-06-19T05:37:05;21.20;99.90
18823;DHT22;9540;51.550;7.980;2023-06-19T05:39:34;21.20;99.90
18823;DHT22;9540;51.550;7.980;2023-06-19T05:42:01;21.20;99.90
18823;DHT22;9540;51.550;7.980;2023-06-19T05:44:29;21.20;99.90
18823;DHT22;9540;51.550;7.980;2023-06-19T05:46:56;21.20;99.90
18823;DHT22;9540;51.550;7.980;2023-06-19T05:49:23;21.30;99.90
18823;DHT22;9540;51.550;7.980;2023-06-19T05:51:50;21.40;99.90
18823;DHT22;9540;51.550;7.980;2023-06-19T05:54:17;21.30;99.90
18823;DHT22;9540;51.550;7.980;2023-06-19T05:56:45;21.20;99.90
18823;DHT22;9540;51.550;7.980;2023-06-19T05:59:16;21.10;99.90
18823;DHT22;9540;51.550;7.980;2023-06-19T06:01:43;21.10;99.90
18823;DHT22;9540;51.550;7.980;2023-06-19T06:04:10;21.20;99.90
18823;DHT22;9540;51.550;7.980;2023-06-19T06:06:37;21.20;99.90
18823;DHT22;9540;51.550;7.980;2023-06-19T06:09:07;21.30;99.90
18823;DHT22;9540;51.550;7.980;2023-06-19T06:11:36;21.30;99.90
18823;DHT22;9540;51.550;7.980;2023-06-19T06:14:05;21.40;99.90
18823;DHT22;9540;51.550;7.980;2023-06-19T06:16:32;21.40;99.90
18823;DHT22;9540;51.550;7.980;2023-06-19T06:18:59;21.50;99.90
18823;DHT22;9540;51.550;7.980;2023-06-19T06:21:26;21.50;99.90
18823;DHT22;9540;51.550;7.980;2023-06-19T06:23:53;21.60;99.90
18823;DHT22;9540;51.550;7.980;2023-06-19T06:26:20;21.60;99.90
18823;DHT22;9540;51.550;7.980;2023-06-19T06:28:50;21.60;99.90
18823;DHT22;9540;51.550;7.980;2023-06-19T06:31:18;21.70;99.90
18823;DHT22;9540;51.550;7.980;2023-06-19T06:33:46;21.70;99.90
18823;DHT22;9540;51.550;7.980;2023-06-19T06:36:15;21.80;99.90
18823;DHT22;9540;51.550;7.980;2023-06-19T06:38:43;21.90;99.90
18823;DHT22;9540;51.550;7.980;2023-06-19T06:41:10;22.00;99.90
18823;DHT22;9540;51.550;7.980;2023-06-19T06:43:39;21.90;99.90
18823;DHT22;9540;51.550;7.980;2023-06-19T06:46:08;21.90;99.90
18823;DHT22;9540;51.550;7.980;2023-06-19T06:48:37;22.00;99.90
18823;DHT22;9540;51.550;7.980;2023-06-19T06:51:05;22.10;99.90
18823;DHT22;9540;51.550;7.980;2023-06-19T06:53:32;22.00;99.90
18823;DHT22;9540;51.550;7.980;2023-06-19T06:55:59;22.00;99.90
18823;DHT22;9540;51.550;7.980;2023-06-19T06:58:27;22.00;99.90
18823;DHT22;9540;51.550;7.980;2023-06-19T07:00:54;22.10;99.90
18823;DHT22;9540;51.550;7.980;2023-06-19T07:03:22;22.10;99.90
18823;DHT22;9540;51.550;7.980;2023-06-19T07:05:50;22.10;99.90
18823;DHT22;9540;51.550;7.980;2023-06-19T07:08:18;22.10;99.90
18823;DHT22;9540;51.550;7.980;2023-06-19T07:10:45;22.10;99.90
18823;DHT22;9540;51.550;7.980;2023-06-19T07:13:12;22.10;99.90
18823;DHT22;9540;51.550;7.980;2023-06-19T07:15:39;22.20;99.90
18823;DHT22;9540;51.550;7.980;2023-06-19T07:18:06;22.10;99.90
18823;DHT22;9540;51.550;7.980;2023-06-19T07:20:34;22.10;99.90
18823;DHT22;9540;51.550;7.980;2023-06-19T07:23:02;22.00;99.90
18823;DHT22;9540;51.550;7.980;2023-06-19T07:25:30;21.90;99.90
18823;DHT22;9540;51.550;7.980;2023-06-19T07:27:59;21.90;99.90
18823;DHT22;9540;51.550;7.980;2023-06-19T07:30:27;21.90;99.90
18823;DHT22;9540;51.550;7.980;2023-06-19T07:32:54;22.00;99.90
18823;DHT22;9540;51.550;7.980;2023-06-19T07:35:21;22.00;99.90
18823;DHT22;9540;51.550;7.980;2023-06-19T07:37:48;22.00;99.90
18823;DHT22;9540;51.550;7.980;2023-06-19T07:40:17;22.00;99.90
18823;DHT22;9540;51.550;7.980;2023-06-19T07:42:44;22.00;99.90
18823;DHT22;9540;51.550;7.980;2023-06-19T07:45:12;22.00;99.90
18823;DHT22;9540;51.550;7.980;2023-06-19T07:47:40;22.10;99.90
18823;DHT22;9540;51.550;7.980;2023-06-19T07:50:07;22.00;99.90
18823;DHT22;9540;51.550;7.980;2023-06-19T07:52:35;22.10;99.90
18823;DHT22;9540;51.550;7.980;2023-06-19T07:55:02;22.00;99.90
18823;DHT22;9540;51.550;7.980;2023-06-19T07:57:31;22.10;99.90
18823;DHT22;9540;51.550;7.980;2023-06-19T07:59:58;22.00;99.90
18823;DHT22;9540;51.550;7.980;2023-06-19T08:02:26;22.00;99.90
18823;DHT22;9540;51.550;7.980;2023-06-19T08:04:53;22.00;99.90
18823;DHT22;9540;51.550;7.980;2023-06-19T08:07:20;22.10;99.90
18823;DHT22;9540;51.550;7.980;2023-06-19T08:09:48;22.10;99.90
18823;DHT22;9540;51.550;7.980;2023-06-19T08:12:18;22.20;99.90
18823;DHT22;9540;51.550;7.980;2023-06-19T08:14:47;22.20;99.90
18823;DHT22;9540;51.550;7.980;2023-06-19T08:17:14;22.20;99.90
18823;DHT22;9540;51.550;7.980;2023-06-19T08:19:41;22.20;99.90
18823;DHT22;9540;51.550;7.980;2023-06-19T08:22:08;22.20;99.90
18823;DHT22;9540;51.550;7.980;2023-06-19T08:24:38;22.20;99.90
18823;DHT22;9540;51.550;7.980;2023-06-19T08:27:06;22.20;99.90
18823;DHT22;9540;51.550;7.980;2023-06-19T08:29:33;22.20;99.90
18823;DHT22;9540;51.550;7.980;2023-06-19T08:32:02;22.30;99.90
18823;DHT22;9540;51.550;7.980;2023-06-19T08:34:29;22.40;99.90
18823;DHT22;9540;51.550;7.980;2023-06-19T08:36:57;22.40;99.90
18823;DHT22;9540;51.550;7.980;2023-06-19T08:39:24;22.30;99.90
18823;DHT22;9540;51.550;7.980;2023-06-19T08:41:51;22.20;99.90
18823;DHT22;9540;51.550;7.980;2023-06-19T08:44:20;22.20;99.90
18823;DHT22;9540;51.550;7.980;2023-06-19T08:46:47;22.30;99.90
18823;DHT22;9540;51.550;7.980;2023-06-19T08:49:15;22.30;99.90
18823;DHT22;9540;51.550;7.980;2023-06-19T08:51:43;22.20;99.90
18823;DHT22;9540;51.550;7.980;2023-06-19T08:54:10;22.10;99.90
18823;DHT22;9540;51.550;7.980;2023-06-19T08:56:39;22.10;99.90
18823;DHT22;9540;51.550;7.980;2023-06-19T08:59:10;22.10;99.90
18823;DHT22;9540;51.550;7.980;2023-06-19T09:01:37;22.20;99.90
18823;DHT22;9540;51.550;7.980;2023-06-19T09:04:10;22.30;99.90
18823;DHT22;9540;51.550;7.980;2023-06-19T09:06:46;22.30;99.90
18823;DHT22;9540;51.550;7.980;2023-06-19T09:09:14;22.40;99.90
18823;DHT22;9540;51.550;7.980;2023-06-19T09:11:41;22.50;99.90
18823;DHT22;9540;51.550;7.980;2023-06-19T09:14:10;22.50;99.90
18823;DHT22;9540;51.550;7.980;2023-06-19T09:16:39;22.60;99.90
18823;DHT22;9540;51.550;7.980;2023-06-19T09:19:06;22.60;99.90
18823;DHT22;9540;51.550;7.980;2023-06-19T09:21:37;22.60;99.90
18823;DHT22;9540;51.550;7.980;2023-06-19T09:24:06;22.60;99.90
18823;DHT22;9540;51.550;7.980;2023-06-19T09:26:33;22.80;99.90
18823;DHT22;9540;51.550;7.980;2023-06-19T09:29:10;22.90;99.90
18823;DHT22;9540;51.550;7.980;2023-06-19T09:31:37;23.00;99.90
18823;DHT22;9540;51.550;7.980;2023-06-19T09:34:07;23.10;99.90
18823;DHT22;9540;51.550;7.980;2023-06-19T09:36:35;23.20;99.90
18823;DHT22;9540;51.550;7.980;2023-06-19T09:39:04;23.40;99.90
18823;DHT22;9540;51.550;7.980;2023-06-19T09:41:32;23.50;99.90
18823;DHT22;9540;51.550;7.980;2023-06-19T09:44:02;23.90;99.90
18823;DHT22;9540;51.550;7.980;2023-06-19T09:46:38;24.00;99.90
18823;DHT22;9540;51.550;7.980;2023-06-19T09:49:08;24.00;99.90
18823;DHT22;9540;51.550;7.980;2023-06-19T09:51:37;23.70;99.90
18823;DHT22;9540;51.550;7.980;2023-06-19T09:54:10;23.70;99.90
18823;DHT22;9540;51.550;7.980;2023-06-19T09:56:37;23.70;99.90
18823;DHT22;9540;51.550;7.980;2023-06-19T09:59:05;23.50;99.90
18823;DHT22;9540;51.550;7.980;2023-06-19T10:01:38;23.40;99.90
18823;DHT22;9540;51.550;7.980;2023-06-19T10:04:06;23.40;99.90
18823;DHT22;9540;51.550;7.980;2023-06-19T10:06:42;23.40;99.90
18823;DHT22;9540;51.550;7.980;2023-06-19T10:09:13;23.30;99.90
18823;DHT22;9540;51.550;7.980;2023-06-19T10:11:50;23.20;99.90
18823;DHT22;9540;51.550;7.980;2023-06-19T10:14:22;23.20;99.90
18823;DHT22;9540;51.550;7.980;2023-06-19T10:16:52;23.30;99.90
18823;DHT22;9540;51.550;7.980;2023-06-19T10:19:21;23.40;99.90
18823;DHT22;9540;51.550;7.980;2023-06-19T10:21:52;23.50;99.90
18823;DHT22;9540;51.550;7.980;2023-06-19T10:24:22;23.60;99.90
18823;DHT22;9540;51.550;7.980;2023-06-19T10:26:56;23.80;99.90
18823;DHT22;9540;51.550;7.980;2023-06-19T10:29:25;24.00;99.90
18823;DHT22;9540;51.550;7.980;2023-06-19T10:31:53;24.10;99.90
18823;DHT22;9540;51.550;7.980;2023-06-19T10:34:22;24.00;99.90
18823;DHT22;9540;51.550;7.980;2023-06-19T10:36:59;23.90;99.90
18823;DHT22;9540;51.550;7.980;2023-06-19T10:39:28;23.70;99.90
18823;DHT22;9540;51.550;7.980;2023-06-19T10:41:55;23.70;99.90
18823;DHT22;9540;51.550;7.980;2023-06-19T10:44:23;23.80;99.90
18823;DHT22;9540;51.550;7.980;2023-06-19T10:46:52;23.90;99.90
18823;DHT22;9540;51.550;7.980;2023-06-19T10:49:21;24.00;99.90
18823;DHT22;9540;51.550;7.980;2023-06-19T10:51:48;24.10;99.90
18823;DHT22;9540;51.550;7.980;2023-06-19T10:54:15;24.10;99.90
18823;DHT22;9540;51.550;7.980;2023-06-19T10:56:45;24.30;99.90
18823;DHT22;9540;51.550;7.980;2023-06-19T10:59:14;24.30;99.90
18823;DHT22;9540;51.550;7.980;2023-06-19T11:01:43;24.50;99.90
18823;DHT22;9540;51.550;7.980;2023-06-19T11:04:13;24.80;99.90
18823;DHT22;9540;51.550;7.980;2023-06-19T11:06:42;24.80;99.90
18823;DHT22;9540;51.550;7.980;2023-06-19T11:09:10;24.60;99.90
18823;DHT22;9540;51.550;7.980;2023-06-19T11:11:38;24.50;99.90
18823;DHT22;9540;51.550;7.980;2023-06-19T11:14:08;24.60;99.90
18823;DHT22;9540;51.550;7.980;2023-06-19T11:16:38;24.80;99.90
18823;DHT22;9540;51.550;7.980;2023-06-19T11:19:07;24.90;99.90
18823;DHT22;9540;51.550;7.980;2023-06-19T11:21:35;25.10;99.90
18823;DHT22;9540;51.550;7.980;2023-06-19T11:24:05;25.30;99.90
18823;DHT22;9540;51.550;7.980;2023-06-19T11:26:35;25.30;99.90
18823;DHT22;9540;51.550;7.980;2023-06-19T11:29:15;25.20;99.90
18823;DHT22;9540;51.550;7.980;2023-06-19T11:31:44;25.10;99.90
18823;DHT22;9540;51.550;7.980;2023-06-19T11:34:11;25.00;99.90
18823;DHT22;9540;51.550;7.980;2023-06-19T11:36:38;25.10;99.90
18823;DHT22;9540;51.550;7.980;2023-06-19T11:39:10;25.10;99.90
18823;DHT22;9540;51.550;7.980;2023-06-19T11:41:39;25.10;99.90
18823;DHT22;9540;51.550;7.980;2023-06-19T11:44:07;25.30;99.90
18823;DHT22;9540;51.550;7.980;2023-06-19T11:46:37;25.40;99.90
18823;DHT22;9540;51.550;7.980;2023-06-19T11:49:08;25.60;99.90
18823;DHT22;9540;51.550;7.980;2023-06-19T11:51:36;25.70;99.90
18823;DHT22;9540;51.550;7.980;2023-06-19T11:54:05;25.70;99.90
18823;DHT22;9540;51.550;7.980;2023-06-19T11:56:34;25.70;99.90
18823;DHT22;9540;51.550;7.980;2023-06-19T11:59:01;25.80;99.90
18823;DHT22;9540;51.550;7.980;2023-06-19T12:01:29;25.70;99.90
18823;DHT22;9540;51.550;7.980;2023-06-19T12:03:58;25.70;99.90
18823;DHT22;9540;51.550;7.980;2023-06-19T12:06:25;25.70;99.90
18823;DHT22;9540;51.550;7.980;2023-06-19T12:08:53;25.70;99.90
18823;DHT22;9540;51.550;7.980;2023-06-19T12:11:20;25.80;99.90
18823;DHT22;9540;51.550;7.980;2023-06-19T12:13:47;25.80;99.90
18823;DHT22;9540;51.550;7.980;2023-06-19T12:16:14;25.90;99.90
18823;DHT22;9540;51.550;7.980;2023-06-19T12:18:42;25.90;99.90
18823;DHT22;9540;51.550;7.980;2023-06-19T12:21:10;26.00;99.90
18823;DHT22;9540;51.550;7.980;2023-06-19T12:23:37;26.10;99.90
18823;DHT22;9540;51.550;7.980;2023-06-19T12:26:04;26.20;99.90
18823;DHT22;9540;51.550;7.980;2023-06-19T12:28:31;26.30;99.90
18823;DHT22;9540;51.550;7.980;2023-06-19T12:30:59;26.40;99.90
18823;DHT22;9540;51.550;7.980;2023-06-19T12:33:26;26.30;99.90
18823;DHT22;9540;51.550;7.980;2023-06-19T12:35:59;26.40;99.90
18823;DHT22;9540;51.550;7.980;2023-06-19T12:38:28;26.40;99.90
18823;DHT22;9540;51.550;7.980;2023-06-19T12:40:55;26.50;99.90
18823;DHT22;9540;51.550;7.980;2023-06-19T12:43:22;26.50;99.90
18823;DHT22;9540;51.550;7.980;2023-06-19T12:45:50;26.30;99.90
18823;DHT22;9540;51.550;7.980;2023-06-19T12:48:17;26.20;99.90
18823;DHT22;9540;51.550;7.980;2023-06-19T12:50:44;26.20;99.90
18823;DHT22;9540;51.550;7.980;2023-06-19T12:53:11;26.30;99.90
18823;DHT22;9540;51.550;7.980;2023-06-19T12:55:40;26.30;99.90
18823;DHT22;9540;51.550;7.980;2023-06-19T12:58:07;26.40;99.90
18823;DHT22;9540;51.550;7.980;2023-06-19T13:00:34;26.30;99.90
18823;DHT22;9540;51.550;7.980;2023-06-19T13:03:01;26.40;99.90
18823;DHT22;9540;51.550;7.980;2023-06-19T13:05:28;26.50;99.90
18823;DHT22;9540;51.550;7.980;2023-06-19T13:07:55;26.60;99.90
18823;DHT22;9540;51.550;7.980;2023-06-19T13:10:22;26.70;99.90
18823;DHT22;9540;51.550;7.980;2023-06-19T13:12:51;26.70;99.90
18823;DHT22;9540;51.550;7.980;2023-06-19T13:15:18;26.60;99.90
18823;DHT22;9540;51.550;7.980;2023-06-19T13:17:45;26.70;99.90
18823;DHT22;9540;51.550;7.980;2023-06-19T13:20:13;26.70;99.90
18823;DHT22;9540;51.550;7.980;2023-06-19T13:22:40;26.60;99.90
18823;DHT22;9540;51.550;7.980;2023-06-19T13:25:08;26.60;99.90
18823;DHT22;9540;51.550;7.980;2023-06-19T13:27:35;26.70;99.90
18823;DHT22;9540;51.550;7.980;2023-06-19T13:30:04;26.80;99.90
18823;DHT22;9540;51.550;7.980;2023-06-19T13:32:32;26.80;99.90
18823;DHT22;9540;51.550;7.980;2023-06-19T13:34:59;26.70;99.90
18823;DHT22;9540;51.550;7.980;2023-06-19T13:37:26;26.70;99.90
18823;DHT22;9540;51.550;7.980;2023-06-19T13:39:53;26.50;99.90
18823;DHT22;9540;51.550;7.980;2023-06-19T13:42:20;26.40;99.90
18823;DHT22;9540;51.550;7.980;2023-06-19T13:44:47;26.40;99.90
18823;DHT22;9540;51.550;7.980;2023-06-19T13:47:15;26.50;99.90
18823;DHT22;9540;51.550;7.980;2023-06-19T13:49:43;26.40;99.90
18823;DHT22;9540;51.550;7.980;2023-06-19T13:52:10;26.40;99.90
18823;DHT22;9540;51.550;7.980;2023-06-19T13:54:37;26.40;99.90
18823;DHT22;9540;51.550;7.980;2023-06-19T13:57:05;26.40;99.90
18823;DHT22;9540;51.550;7.980;2023-06-19T13:59:32;26.40;99.90
18823;DHT22;9540;51.550;7.980;2023-06-19T14:01:59;26.50;99.90
18823;DHT22;9540;51.550;7.980;2023-06-19T14:04:28;26.50;99.90
18823;DHT22;9540;51.550;7.980;2023-06-19T14:06:55;26.60;99.90
18823;DHT22;9540;51.550;7.980;2023-06-19T14:09:22;26.70;99.90
18823;DHT22;9540;51.550;7.980;2023-06-19T14:11:49;26.70;99.90
18823;DHT22;9540;51.550;7.980;2023-06-19T14:14:16;26.80;99.90
18823;DHT22;9540;51.550;7.980;2023-06-19T14:16:43;27.00;99.90
18823;DHT22;9540;51.550;7.980;2023-06-19T14:19:10;27.20;99.90
18823;DHT22;9540;51.550;7.980;2023-06-19T14:21:39;27.30;99.90
18823;DHT22;9540;51.550;7.980;2023-06-19T14:24:06;27.40;99.90
18823;DHT22;9540;51.550;7.980;2023-06-19T14:26:33;27.40;99.90
18823;DHT22;9540;51.550;7.980;2023-06-19T14:29:00;27.30;99.90
18823;DHT22;9540;51.550;7.980;2023-06-19T14:31:27;27.30;99.90
18823;DHT22;9540;51.550;7.980;2023-06-19T14:33:54;27.30;99.90
18823;DHT22;9540;51.550;7.980;2023-06-19T14:36:21;27.30;99.90
18823;DHT22;9540;51.550;7.980;2023-06-19T14:38:50;27.20;99.90
18823;DHT22;9540;51.550;7.980;2023-06-19T14:41:17;27.10;99.90
18823;DHT22;9540;51.550;7.980;2023-06-19T14:43:47;27.10;99.90
18823;DHT22;9540;51.550;7.980;2023-06-19T14:46:14;27.10;99.90
18823;DHT22;9540;51.550;7.980;2023-06-19T14:48:41;27.30;99.90
18823;DHT22;9540;51.550;7.980;2023-06-19T14:51:08;27.50;99.90
18823;DHT22;9540;51.550;7.980;2023-06-19T14:53:37;27.70;99.90
18823;DHT22;9540;51.550;7.980;2023-06-19T14:56:08;27.80;99.90
18823;DHT22;9540;51.550;7.980;2023-06-19T14:58:43;27.90;99.90
18823;DHT22;9540;51.550;7.980;2023-06-19T15:01:10;27.90;99.90
18823;DHT22;9540;51.550;7.980;2023-06-19T15:03:38;28.10;99.90
18823;DHT22;9540;51.550;7.980;2023-06-19T15:06:06;28.20;99.90
18823;DHT22;9540;51.550;7.980;2023-06-19T15:08:33;28.10;99.90
18823;DHT22;9540;51.550;7.980;2023-06-19T15:11:01;28.20;99.90
18823;DHT22;9540;51.550;7.980;2023-06-19T15:13:32;28.20;99.90
18823;DHT22;9540;51.550;7.980;2023-06-19T15:16:03;28.10;99.90
18823;DHT22;9540;51.550;7.980;2023-06-19T15:18:36;28.10;99.90
18823;DHT22;9540;51.550;7.980;2023-06-19T15:21:03;28.30;99.90
18823;DHT22;9540;51.550;7.980;2023-06-19T15:23:31;28.30;99.90
18823;DHT22;9540;51.550;7.980;2023-06-19T15:25:58;28.40;99.90
18823;DHT22;9540;51.550;7.980;2023-06-19T15:28:25;28.30;99.90
18823;DHT22;9540;51.550;7.980;2023-06-19T15:30:54;28.30;99.90
18823;DHT22;9540;51.550;7.980;2023-06-19T15:33:21;28.20;99.90
18823;DHT22;9540;51.550;7.980;2023-06-19T15:35:48;28.20;99.90
18823;DHT22;9540;51.550;7.980;2023-06-19T15:38:15;27.90;99.90
18823;DHT22;9540;51.550;7.980;2023-06-19T15:40:43;27.70;99.90
18823;DHT22;9540;51.550;7.980;2023-06-19T15:43:10;27.50;99.90
18823;DHT22;9540;51.550;7.980;2023-06-19T15:45:37;27.50;99.90
18823;DHT22;9540;51.550;7.980;2023-06-19T15:48:06;27.50;99.90
18823;DHT22;9540;51.550;7.980;2023-06-19T15:50:33;27.50;99.90